createdAt,value
2023-02-16T00:00:58.161Z,62.81
2023-02-16T00:01:58.258Z,62.68
2023-02-16T00:02:58.088Z,60.62
2023-02-16T00:03:58.091Z,63.92
2023-02-16T00:04:58.097Z,61.71
2023-02-16T00:05:58.068Z,63.90
2023-02-16T00:06:58.078Z,63.88
2023-02-16T00:07:58.052Z,62.83
2023-02-16T00:08:58.071Z,61.86
2023-02-16T00:09:58.044Z,59.83
2023-02-16T00:10:58.052Z,60.71
2023-02-16T00:11:58.042Z,61.67
2023-02-16T00:12:58.043Z,62.12
2023-02-16T00:13:58.015Z,62.94
2023-02-16T00:14:58.016Z,61.57
2023-02-16T00:15:58.042Z,62.48
2023-02-16T00:16:58.016Z,61.66
2023-02-16T00:17:58.003Z,58.69
2023-02-16T00:18:57.987Z,61.54
2023-02-16T00:19:57.974Z,61.03
2023-02-16T00:20:57.972Z,61.05
2023-02-16T00:21:57.969Z,61.89
2023-02-16T00:22:57.965Z,59.58
2023-02-16T00:23:57.968Z,60.82
2023-02-16T00:24:57.946Z,55.33
2023-02-16T00:25:57.934Z,60.52
2023-02-16T00:26:57.990Z,61.53
2023-02-16T00:27:57.934Z,60.46
2023-02-16T00:28:57.924Z,61.82
2023-02-16T00:29:57.979Z,58.64
2023-02-16T00:30:58.013Z,59.60
2023-02-16T00:31:58.016Z,58.68
2023-02-16T00:32:57.927Z,60.35
2023-02-16T00:33:57.908Z,64.88
2023-02-16T00:34:57.912Z,61.83
2023-02-16T00:35:57.876Z,61.36
2023-02-16T00:36:57.890Z,59.66
2023-02-16T00:37:57.868Z,59.05
2023-02-16T00:38:57.878Z,57.72
2023-02-16T00:39:57.889Z,61.37
2023-02-16T00:40:57.872Z,60.99
2023-02-16T00:41:57.849Z,59.69
2023-02-16T00:42:57.866Z,54.76
2023-02-16T00:43:57.826Z,61.00
2023-02-16T00:44:57.827Z,58.43
2023-02-16T00:45:57.833Z,60.33
2023-02-16T00:46:57.844Z,59.53
2023-02-16T00:47:57.812Z,60.01
2023-02-16T00:48:57.793Z,61.81
2023-02-16T00:49:57.776Z,65.06
2023-02-16T00:50:57.793Z,61.98
2023-02-16T00:51:57.806Z,59.74
2023-02-16T00:52:57.789Z,59.90
2023-02-16T00:53:57.763Z,60.17
2023-02-16T00:54:57.773Z,59.74
2023-02-16T00:55:57.733Z,59.65
2023-02-16T00:56:57.769Z,62.24
2023-02-16T00:57:57.720Z,59.12
2023-02-16T00:58:57.727Z,61.90
2023-02-16T00:59:57.716Z,59.75
2023-02-16T01:00:57.728Z,60.25
2023-02-16T01:01:57.803Z,61.80
2023-02-16T01:02:57.704Z,56.76
2023-02-16T01:03:57.692Z,60.87
2023-02-16T01:04:57.692Z,59.52
2023-02-16T01:05:57.677Z,60.90
2023-02-16T01:06:57.680Z,60.90
2023-02-16T01:07:57.656Z,60.78
2023-02-16T01:08:57.662Z,62.19
2023-02-16T01:09:57.652Z,61.64
2023-02-16T01:10:57.634Z,61.50
2023-02-16T01:11:57.630Z,55.27
2023-02-16T01:12:57.653Z,59.76
2023-02-16T01:13:57.620Z,60.29
2023-02-16T01:14:57.607Z,62.89
2023-02-16T01:15:57.646Z,61.28
2023-02-16T01:16:57.630Z,60.29
2023-02-16T01:17:57.589Z,58.52
2023-02-16T01:18:57.577Z,57.56
2023-02-16T01:19:57.599Z,63.66
2023-02-16T01:20:57.604Z,60.30
2023-02-16T01:21:57.558Z,61.80
2023-02-16T01:22:57.576Z,61.16
2023-02-16T01:23:57.567Z,55.44
2023-02-16T01:24:57.538Z,58.31
2023-02-16T01:25:57.546Z,60.41
2023-02-16T01:26:57.540Z,62.31
2023-02-16T01:27:57.538Z,63.02
2023-02-16T01:28:57.529Z,56.22
2023-02-16T01:29:57.538Z,61.54
2023-02-16T01:30:57.630Z,62.44
2023-02-16T01:31:57.606Z,62.45
2023-02-16T01:32:57.491Z,61.83
2023-02-16T01:33:57.510Z,58.71
2023-02-16T01:34:57.499Z,60.16
2023-02-16T01:35:57.471Z,61.56
2023-02-16T01:36:57.472Z,60.34
2023-02-16T01:37:57.474Z,59.84
2023-02-16T01:38:57.451Z,62.11
2023-02-16T01:39:57.448Z,59.73
2023-02-16T01:40:57.448Z,61.76
2023-02-16T01:41:57.427Z,63.68
2023-02-16T01:42:57.451Z,58.85
2023-02-16T01:43:57.463Z,62.64
2023-02-16T01:44:57.410Z,62.54
2023-02-16T01:45:57.399Z,60.01
2023-02-16T01:46:57.414Z,60.87
2023-02-16T01:47:57.384Z,59.68
2023-02-16T01:48:57.393Z,59.97
2023-02-16T01:49:57.431Z,60.58
2023-02-16T01:50:57.379Z,64.26
2023-02-16T01:51:57.365Z,63.11
2023-02-16T01:52:57.361Z,62.35
2023-02-16T01:53:57.354Z,65.81
2023-02-16T01:54:57.351Z,61.81
2023-02-16T01:55:57.379Z,62.66
2023-02-16T01:56:57.348Z,60.20
2023-02-16T01:57:57.334Z,61.12
2023-02-16T01:58:57.327Z,62.86
2023-02-16T01:59:57.321Z,62.92
2023-02-16T02:00:57.329Z,63.04
2023-02-16T02:01:57.367Z,61.36
2023-02-16T02:02:57.370Z,56.79
2023-02-16T02:03:57.290Z,59.57
2023-02-16T02:04:57.298Z,62.65
2023-02-16T02:05:57.284Z,62.22
2023-02-16T02:06:57.297Z,59.29
2023-02-16T02:07:57.275Z,59.72
2023-02-16T02:08:57.276Z,60.93
2023-02-16T02:09:57.275Z,56.04
2023-02-16T02:10:57.264Z,57.16
2023-02-16T02:11:57.262Z,59.37
2023-02-16T02:12:57.238Z,62.04
2023-02-16T02:13:57.215Z,60.69
2023-02-16T02:14:57.241Z,60.19
2023-02-16T02:15:57.265Z,56.23
2023-02-16T02:16:57.216Z,62.41
2023-02-16T02:17:57.196Z,62.41
2023-02-16T02:18:57.206Z,59.36
2023-02-16T02:19:57.201Z,63.32
2023-02-16T02:20:57.175Z,59.72
2023-02-16T02:21:57.184Z,59.33
2023-02-16T02:22:57.168Z,61.22
2023-02-16T02:23:57.155Z,60.65
2023-02-16T02:24:57.158Z,59.19
2023-02-16T02:25:57.169Z,58.26
2023-02-16T02:26:57.136Z,60.57
2023-02-16T02:27:57.132Z,62.03
2023-02-16T02:28:57.122Z,61.98
2023-02-16T02:29:57.167Z,60.67
2023-02-16T02:30:57.121Z,59.32
2023-02-16T02:31:57.243Z,59.56
2023-02-16T02:32:57.106Z,58.71
2023-02-16T02:33:57.094Z,60.21
2023-02-16T02:34:57.086Z,59.16
2023-02-16T02:35:57.097Z,63.07
2023-02-16T02:36:57.079Z,59.67
2023-02-16T02:37:57.087Z,59.96
2023-02-16T02:38:57.087Z,59.28
2023-02-16T02:39:57.057Z,58.33
2023-02-16T02:40:57.052Z,63.79
2023-02-16T02:41:57.056Z,61.85
2023-02-16T02:42:57.054Z,53.97
2023-02-16T02:43:57.041Z,63.46
2023-02-16T02:44:57.053Z,61.62
2023-02-16T02:45:57.026Z,63.22
2023-02-16T02:46:57.131Z,61.64
2023-02-16T02:47:57.015Z,62.61
2023-02-16T02:48:57.019Z,60.44
2023-02-16T02:49:57.016Z,61.88
2023-02-16T02:50:56.996Z,62.59
2023-02-16T02:51:57.008Z,59.99
2023-02-16T02:52:56.988Z,61.12
2023-02-16T02:53:56.985Z,60.28
2023-02-16T02:54:56.982Z,64.68
2023-02-16T02:55:56.986Z,62.80
2023-02-16T02:56:56.981Z,63.29
2023-02-16T02:57:56.952Z,60.88
2023-02-16T02:58:56.946Z,62.45
2023-02-16T02:59:56.940Z,62.96
2023-02-16T03:00:57.013Z,60.68
2023-02-16T03:01:56.948Z,63.04
2023-02-16T03:02:56.924Z,63.34
2023-02-16T03:03:56.936Z,57.63
2023-02-16T03:04:56.909Z,58.87
2023-02-16T03:05:56.905Z,59.58
2023-02-16T03:06:56.919Z,61.18
2023-02-16T03:07:56.889Z,61.00
2023-02-16T03:08:56.899Z,60.56
2023-02-16T03:09:56.884Z,64.94
2023-02-16T03:10:56.873Z,61.67
2023-02-16T03:11:56.890Z,59.12
2023-02-16T03:12:56.868Z,57.88
2023-02-16T03:13:56.877Z,61.33
2023-02-16T03:14:56.846Z,61.28
2023-02-16T03:15:56.844Z,60.86
2023-02-16T03:16:56.833Z,62.12
2023-02-16T03:17:56.829Z,57.17
2023-02-16T03:18:56.827Z,62.00
2023-02-16T03:19:56.836Z,62.34
2023-02-16T03:20:56.812Z,62.42
2023-02-16T03:21:56.805Z,62.28
2023-02-16T03:22:56.797Z,64.56
2023-02-16T03:23:56.809Z,62.31
2023-02-16T03:24:56.799Z,57.84
2023-02-16T03:25:56.775Z,62.31
2023-02-16T03:26:56.776Z,61.06
2023-02-16T03:27:56.760Z,64.25
2023-02-16T03:28:56.746Z,62.37
2023-02-16T03:29:56.840Z,62.95
2023-02-16T03:30:56.812Z,62.06
2023-02-16T03:31:56.809Z,63.21
2023-02-16T03:32:56.732Z,62.37
2023-02-16T03:33:56.732Z,63.59
2023-02-16T03:34:56.731Z,61.49
2023-02-16T03:35:56.727Z,61.64
2023-02-16T03:36:56.703Z,62.30
2023-02-16T03:37:56.699Z,63.71
2023-02-16T03:38:56.696Z,60.12
2023-02-16T03:39:56.702Z,59.36
2023-02-16T03:40:56.683Z,59.40
2023-02-16T03:41:56.677Z,62.05
2023-02-16T03:42:56.673Z,60.36
2023-02-16T03:43:56.655Z,60.52
2023-02-16T03:44:56.655Z,63.13
2023-02-16T03:45:56.711Z,60.80
2023-02-16T03:46:56.638Z,64.19
2023-02-16T03:47:56.646Z,59.86
2023-02-16T03:48:56.626Z,62.77
2023-02-16T03:49:56.619Z,63.72
2023-02-16T03:50:56.626Z,60.43
2023-02-16T03:51:56.627Z,62.63
2023-02-16T03:52:56.622Z,62.98
2023-02-16T03:53:56.594Z,61.36
2023-02-16T03:54:56.597Z,62.10
2023-02-16T03:55:56.594Z,63.38
2023-02-16T03:56:56.593Z,65.51
2023-02-16T03:57:56.580Z,63.83
2023-02-16T03:58:56.577Z,62.31
2023-02-16T03:59:59.203Z,58.58
2023-02-16T04:00:56.570Z,60.23
2023-02-16T04:01:56.647Z,60.61
2023-02-16T04:02:56.550Z,63.07
2023-02-16T04:03:56.590Z,61.67
2023-02-16T04:04:56.568Z,66.15
2023-02-16T04:05:56.535Z,62.67
2023-02-16T04:06:56.529Z,60.02
2023-02-16T04:07:56.532Z,62.51
2023-02-16T04:08:56.519Z,63.71
2023-02-16T04:09:56.506Z,61.82
2023-02-16T04:10:56.516Z,63.25
2023-02-16T04:11:56.501Z,65.96
2023-02-16T04:12:56.497Z,64.95
2023-02-16T04:13:56.484Z,61.93
2023-02-16T04:14:56.479Z,64.02
2023-02-16T04:15:56.471Z,62.40
2023-02-16T04:16:56.479Z,59.61
2023-02-16T04:17:56.472Z,61.66
2023-02-16T04:18:56.458Z,64.18
2023-02-16T04:19:56.449Z,63.62
2023-02-16T04:20:56.437Z,61.33
2023-02-16T04:21:56.435Z,65.00
2023-02-16T04:22:56.455Z,63.48
2023-02-16T04:23:56.415Z,64.27
2023-02-16T04:24:56.411Z,63.75
2023-02-16T04:25:56.416Z,61.98
2023-02-16T04:26:56.403Z,63.13
2023-02-16T04:27:56.392Z,64.94
2023-02-16T04:28:56.387Z,65.22
2023-02-16T04:29:56.416Z,61.70
2023-02-16T04:30:56.486Z,63.32
2023-02-16T04:31:56.537Z,63.41
2023-02-16T04:32:56.377Z,63.57
2023-02-16T04:33:56.351Z,62.90
2023-02-16T04:34:56.361Z,63.95
2023-02-16T04:35:56.351Z,63.83
2023-02-16T04:36:56.334Z,63.24
2023-02-16T04:37:56.332Z,64.54
2023-02-16T04:38:56.327Z,63.52
2023-02-16T04:39:56.310Z,63.05
2023-02-16T04:40:56.320Z,62.70
2023-02-16T04:41:56.305Z,64.95
2023-02-16T04:42:56.295Z,63.46
2023-02-16T04:43:56.285Z,65.08
2023-02-16T04:44:56.286Z,62.04
2023-02-16T04:45:56.277Z,65.01
2023-02-16T04:46:56.286Z,63.85
2023-02-16T04:47:56.255Z,65.28
2023-02-16T04:48:56.253Z,64.30
2023-02-16T04:49:56.256Z,65.28
2023-02-16T04:50:56.244Z,64.39
2023-02-16T04:51:56.235Z,65.75
2023-02-16T04:52:56.252Z,63.91
2023-02-16T04:53:56.281Z,62.84
2023-02-16T04:54:56.247Z,65.51
2023-02-16T04:55:56.209Z,63.10
2023-02-16T04:56:56.218Z,65.10
2023-02-16T04:57:56.202Z,66.17
2023-02-16T04:58:56.198Z,62.16
2023-02-16T04:59:56.196Z,65.16
2023-02-16T05:00:56.207Z,63.69
2023-02-16T05:01:56.261Z,64.71
2023-02-16T05:02:56.174Z,66.56
2023-02-16T05:03:56.162Z,64.55
2023-02-16T05:04:56.158Z,64.51
2023-02-16T05:05:56.170Z,65.44
2023-02-16T05:06:56.162Z,65.43
2023-02-16T05:07:56.160Z,65.52
2023-02-16T05:08:56.125Z,66.92
2023-02-16T05:09:56.119Z,65.83
2023-02-16T05:10:56.123Z,64.24
2023-02-16T05:11:56.133Z,65.15
2023-02-16T05:12:56.104Z,63.58
2023-02-16T05:13:56.102Z,63.58
2023-02-16T05:14:56.089Z,67.05
2023-02-16T05:15:56.135Z,62.98
2023-02-16T05:16:56.079Z,65.57
2023-02-16T05:17:56.098Z,64.18
2023-02-16T05:18:58.633Z,64.01
2023-02-16T05:19:56.062Z,63.75
2023-02-16T05:20:56.060Z,63.52
2023-02-16T05:21:56.065Z,66.51
2023-02-16T05:22:56.043Z,68.26
2023-02-16T05:23:56.057Z,65.89
2023-02-16T05:24:56.036Z,66.50
2023-02-16T05:25:56.025Z,65.12
2023-02-16T05:26:56.027Z,63.26
2023-02-16T05:27:56.066Z,67.22
2023-02-16T05:28:56.027Z,66.01
2023-02-16T05:29:56.040Z,65.33
2023-02-16T05:30:56.056Z,65.02
2023-02-16T05:31:56.109Z,66.42
2023-02-16T05:32:55.996Z,65.07
2023-02-16T05:33:55.992Z,66.35
2023-02-16T05:34:55.975Z,67.53
2023-02-16T05:35:55.964Z,67.11
2023-02-16T05:36:55.957Z,66.32
2023-02-16T05:37:55.958Z,66.36
2023-02-16T05:38:55.943Z,65.99
2023-02-16T05:39:55.973Z,64.91
2023-02-16T05:40:55.939Z,65.88
2023-02-16T05:41:55.927Z,66.83
2023-02-16T05:42:55.925Z,66.62
2023-02-16T05:43:55.915Z,65.47
2023-02-16T05:44:55.910Z,66.39
2023-02-16T05:45:55.944Z,64.24
2023-02-16T05:46:55.895Z,64.76
2023-02-16T05:47:55.896Z,66.45
2023-02-16T05:48:55.888Z,65.52
2023-02-16T05:49:55.897Z,67.89
2023-02-16T05:50:55.901Z,65.99
2023-02-16T05:51:55.864Z,65.06
2023-02-16T05:52:55.866Z,65.21
2023-02-16T05:53:55.858Z,63.78
2023-02-16T05:54:55.850Z,66.69
2023-02-16T05:55:55.848Z,66.52
2023-02-16T05:56:55.868Z,66.93
2023-02-16T05:57:55.827Z,66.28
2023-02-16T05:58:55.839Z,66.59
2023-02-16T05:59:55.818Z,65.80
2023-02-16T06:00:55.821Z,66.84
2023-02-16T06:01:55.829Z,65.30
2023-02-16T06:02:55.864Z,66.56
2023-02-16T06:03:55.829Z,67.08
2023-02-16T06:04:55.790Z,65.93
2023-02-16T06:05:55.786Z,66.02
2023-02-16T06:06:55.775Z,64.02
2023-02-16T06:07:55.796Z,65.05
2023-02-16T06:08:55.758Z,68.41
2023-02-16T06:09:55.794Z,66.96
2023-02-16T06:10:55.751Z,67.19
2023-02-16T06:11:55.742Z,65.44
2023-02-16T06:12:55.758Z,66.57
2023-02-16T06:13:55.750Z,66.74
2023-02-16T06:14:55.755Z,65.79
2023-02-16T06:15:55.786Z,66.69
2023-02-16T06:16:55.711Z,66.31
2023-02-16T06:17:55.704Z,61.53
2023-02-16T06:18:55.707Z,64.28
2023-02-16T06:19:55.706Z,68.22
2023-02-16T06:20:55.710Z,68.90
2023-02-16T06:21:55.686Z,70.09
2023-02-16T06:22:55.682Z,70.77
2023-02-16T06:23:55.678Z,69.15
2023-02-16T06:24:55.684Z,67.43
2023-02-16T06:25:55.652Z,66.21
2023-02-16T06:26:55.655Z,65.34
2023-02-16T06:27:55.674Z,65.07
2023-02-16T06:28:55.640Z,65.31
2023-02-16T06:29:55.663Z,64.83
2023-02-16T06:30:55.662Z,62.98
2023-02-16T06:31:55.705Z,62.38
2023-02-16T06:32:55.616Z,65.01
2023-02-16T06:33:55.626Z,64.28
2023-02-16T06:34:55.618Z,64.82
2023-02-16T06:35:55.590Z,63.00
2023-02-16T06:36:55.607Z,62.93
2023-02-16T06:37:55.580Z,63.66
2023-02-16T06:38:55.582Z,62.96
2023-02-16T06:39:55.574Z,64.02
2023-02-16T06:40:55.569Z,63.70
2023-02-16T06:41:55.585Z,65.70
2023-02-16T06:42:55.551Z,64.16
2023-02-16T06:43:55.542Z,64.61
2023-02-16T06:44:55.534Z,65.22
2023-02-16T06:45:55.541Z,66.69
2023-02-16T06:46:55.678Z,66.41
2023-02-16T06:47:55.535Z,66.90
2023-02-16T06:48:55.513Z,67.51
2023-02-16T06:49:55.504Z,66.49
2023-02-16T06:50:55.513Z,65.51
2023-02-16T06:51:55.517Z,66.70
2023-02-16T06:52:55.487Z,66.02
2023-02-16T06:53:55.494Z,66.83
2023-02-16T06:54:55.485Z,67.48
2023-02-16T06:55:55.458Z,65.17
2023-02-16T06:56:55.475Z,65.81
2023-02-16T06:57:55.447Z,67.08
2023-02-16T06:58:55.450Z,67.99
2023-02-16T06:59:55.443Z,67.44
2023-02-16T07:00:55.521Z,67.14
2023-02-16T07:01:55.451Z,67.01
2023-02-16T07:02:55.431Z,65.22
2023-02-16T07:03:55.415Z,66.16
2023-02-16T07:04:55.417Z,66.32
2023-02-16T07:05:55.427Z,66.69
2023-02-16T07:06:55.410Z,67.38
2023-02-16T07:07:55.396Z,66.63
2023-02-16T07:08:55.431Z,67.36
2023-02-16T07:09:55.389Z,67.81
2023-02-16T07:10:55.379Z,65.82
2023-02-16T07:11:55.370Z,67.00
2023-02-16T07:12:55.377Z,65.85
2023-02-16T07:13:55.411Z,65.61
2023-02-16T07:14:55.357Z,68.06
2023-02-16T07:15:55.366Z,67.55
2023-02-16T07:16:55.352Z,67.93
2023-02-16T07:17:55.336Z,66.29
2023-02-16T07:18:55.344Z,68.13
2023-02-16T07:19:55.326Z,68.47
2023-02-16T07:20:55.314Z,67.29
2023-02-16T07:21:55.306Z,66.77
2023-02-16T07:22:55.307Z,66.64
2023-02-16T07:23:55.316Z,67.04
2023-02-16T07:24:55.303Z,65.41
2023-02-16T07:25:55.287Z,67.63
2023-02-16T07:26:55.289Z,67.24
2023-02-16T07:27:55.273Z,65.65
2023-02-16T07:28:55.269Z,66.28
2023-02-16T07:29:55.303Z,64.71
2023-02-16T07:30:55.298Z,67.06
2023-02-16T07:31:55.352Z,65.85
2023-02-16T07:32:55.250Z,65.75
2023-02-16T07:33:55.256Z,66.93
2023-02-16T07:34:55.236Z,66.04
2023-02-16T07:35:55.229Z,68.01
2023-02-16T07:36:55.218Z,68.44
2023-02-16T07:37:55.218Z,65.47
2023-02-16T07:38:55.209Z,65.82
2023-02-16T07:39:55.211Z,66.69
2023-02-16T07:40:55.202Z,66.95
2023-02-16T07:41:55.200Z,65.37
2023-02-16T07:42:55.167Z,67.12
2023-02-16T07:43:55.168Z,64.98
2023-02-16T07:44:55.183Z,66.51
2023-02-16T07:45:55.268Z,67.69
2023-02-16T07:46:55.161Z,64.27
2023-02-16T07:47:55.163Z,67.42
2023-02-16T07:48:55.141Z,66.58
2023-02-16T07:49:55.136Z,66.15
2023-02-16T07:50:55.114Z,69.39
2023-02-16T07:51:55.100Z,66.99
2023-02-16T07:52:55.127Z,66.12
2023-02-16T07:53:55.090Z,66.46
2023-02-16T07:54:55.089Z,65.25
2023-02-16T07:55:55.088Z,65.63
2023-02-16T07:56:55.076Z,66.52
2023-02-16T07:57:55.062Z,68.38
2023-02-16T07:58:55.085Z,67.24
2023-02-16T07:59:55.054Z,66.32
2023-02-16T08:00:55.054Z,68.76
2023-02-16T08:01:55.239Z,66.43
2023-02-16T08:02:55.233Z,65.96
2023-02-16T08:03:55.025Z,68.25
2023-02-16T08:04:55.052Z,67.04
2023-02-16T08:05:55.030Z,66.80
2023-02-16T08:06:55.007Z,68.34
2023-02-16T08:07:55.028Z,66.03
2023-02-16T08:08:55.003Z,66.43
2023-02-16T08:09:55.001Z,66.73
2023-02-16T08:10:54.982Z,65.15
2023-02-16T08:11:54.977Z,63.91
2023-02-16T08:12:54.980Z,67.23
2023-02-16T08:13:54.982Z,65.74
2023-02-16T08:14:54.984Z,66.68
2023-02-16T08:15:54.967Z,67.60
2023-02-16T08:16:56.705Z,65.75
2023-02-16T08:17:54.953Z,66.75
2023-02-16T08:18:54.937Z,66.40
2023-02-16T08:19:54.919Z,66.65
2023-02-16T08:21:04.285Z,66.57
2023-02-16T08:21:55.917Z,66.68
2023-02-16T08:22:54.935Z,66.71
2023-02-16T08:23:54.901Z,68.37
2023-02-16T08:24:54.897Z,65.38
2023-02-16T08:25:54.884Z,65.79
2023-02-16T08:26:54.880Z,67.26
2023-02-16T08:27:54.876Z,68.08
2023-02-16T08:28:54.901Z,68.13
2023-02-16T08:29:54.947Z,67.55
2023-02-16T08:30:54.904Z,66.76
2023-02-16T08:31:54.900Z,66.71
2023-02-16T08:32:54.844Z,65.49
2023-02-16T08:33:54.836Z,68.77
2023-02-16T08:34:54.841Z,66.35
2023-02-16T08:35:54.829Z,68.15
2023-02-16T08:36:54.848Z,69.20
2023-02-16T08:37:54.834Z,67.51
2023-02-16T08:38:54.825Z,65.10
2023-02-16T08:39:54.801Z,68.58
2023-02-16T08:40:54.799Z,67.29
2023-02-16T08:41:54.803Z,67.17
2023-02-16T08:42:54.804Z,64.05
2023-02-16T08:43:54.797Z,64.52
2023-02-16T08:44:54.795Z,67.82
2023-02-16T08:45:54.781Z,67.86
2023-02-16T08:46:54.765Z,68.66
2023-02-16T08:47:54.763Z,65.73
2023-02-16T08:48:55.949Z,66.02
2023-02-16T08:49:54.740Z,64.43
2023-02-16T08:50:54.733Z,65.80
2023-02-16T08:51:54.893Z,66.58
2023-02-16T08:52:54.712Z,65.33
2023-02-16T08:53:54.733Z,64.71
2023-02-16T08:54:54.703Z,63.76
2023-02-16T08:55:54.695Z,63.27
2023-02-16T08:56:54.708Z,62.22
2023-02-16T08:57:54.705Z,63.68
2023-02-16T08:58:54.682Z,63.70
2023-02-16T08:59:54.682Z,64.57
2023-02-16T09:00:54.753Z,64.23
2023-02-16T09:01:54.669Z,62.24
2023-02-16T09:02:54.672Z,60.82
2023-02-16T09:03:54.653Z,62.42
2023-02-16T09:04:54.647Z,65.48
2023-02-16T09:05:54.635Z,62.82
2023-02-16T09:06:54.643Z,63.60
2023-02-16T09:07:54.653Z,63.25
2023-02-16T09:08:54.650Z,61.39
2023-02-16T09:09:54.648Z,62.99
2023-02-16T09:10:54.618Z,63.10
2023-02-16T09:11:54.614Z,61.44
2023-02-16T09:12:54.618Z,62.50
2023-02-16T09:13:54.607Z,62.33
2023-02-16T09:14:54.613Z,62.97
2023-02-16T09:15:54.586Z,62.20
2023-02-16T09:16:54.639Z,62.76
2023-02-16T09:17:54.576Z,61.45
2023-02-16T09:18:54.573Z,65.01
2023-02-16T09:19:54.582Z,62.17
2023-02-16T09:20:54.563Z,64.91
2023-02-16T09:21:54.574Z,60.53
2023-02-16T09:22:54.565Z,62.54
2023-02-16T09:23:54.550Z,61.97
2023-02-16T09:24:54.533Z,61.93
2023-02-16T09:25:54.529Z,64.94
2023-02-16T09:26:54.522Z,62.87
2023-02-16T09:27:54.538Z,60.52
2023-02-16T09:28:54.512Z,63.28
2023-02-16T09:29:54.541Z,62.89
2023-02-16T09:30:54.564Z,62.94
2023-02-16T09:31:54.574Z,63.20
2023-02-16T09:32:54.492Z,64.17
2023-02-16T09:33:54.492Z,62.43
2023-02-16T09:34:54.486Z,63.56
2023-02-16T09:35:54.473Z,65.14
2023-02-16T09:36:54.493Z,62.16
2023-02-16T09:37:54.455Z,61.87
2023-02-16T09:38:54.475Z,63.37
2023-02-16T09:39:54.464Z,63.06
2023-02-16T09:40:54.440Z,61.79
2023-02-16T09:41:54.439Z,62.84
2023-02-16T09:42:54.451Z,63.82
2023-02-16T09:43:54.420Z,63.69
2023-02-16T09:44:54.414Z,62.72
2023-02-16T09:45:54.425Z,61.82
2023-02-16T09:46:54.407Z,61.33
2023-02-16T09:47:54.416Z,61.19
2023-02-16T09:48:54.415Z,62.84
2023-02-16T09:49:54.403Z,63.88
2023-02-16T09:50:54.999Z,61.65
2023-02-16T09:51:54.390Z,60.85
2023-02-16T09:52:54.375Z,60.57
2023-02-16T09:53:54.430Z,61.10
2023-02-16T09:54:54.393Z,61.73
2023-02-16T09:55:54.359Z,63.14
2023-02-16T09:56:54.384Z,61.93
2023-02-16T09:57:54.346Z,61.10
2023-02-16T09:58:54.341Z,61.60
2023-02-16T09:59:54.332Z,61.60
2023-02-16T10:00:54.362Z,59.31
2023-02-16T10:01:54.315Z,58.96
2023-02-16T10:02:54.325Z,63.07
2023-02-16T10:03:54.312Z,62.96
2023-02-16T10:04:54.309Z,61.16
2023-02-16T10:05:54.297Z,61.33
2023-02-16T10:06:54.310Z,61.05
2023-02-16T10:07:54.287Z,60.46
2023-02-16T10:08:54.288Z,61.46
2023-02-16T10:09:54.283Z,60.89
2023-02-16T10:10:54.285Z,61.62
2023-02-16T10:11:54.275Z,59.83
2023-02-16T10:12:54.272Z,62.89
2023-02-16T10:13:54.274Z,62.31
2023-02-16T10:14:54.254Z,62.11
2023-02-16T10:15:54.328Z,59.46
2023-02-16T10:16:54.260Z,61.87
2023-02-16T10:17:54.229Z,60.57
2023-02-16T10:18:54.255Z,58.86
2023-02-16T10:19:54.206Z,62.46
2023-02-16T10:20:54.227Z,60.43
2023-02-16T10:21:54.216Z,61.06
2023-02-16T10:22:54.201Z,59.46
2023-02-16T10:23:54.207Z,61.13
2023-02-16T10:24:54.211Z,61.20
2023-02-16T10:25:54.167Z,58.49
2023-02-16T10:26:54.180Z,60.30
2023-02-16T10:27:54.161Z,60.27
2023-02-16T10:28:54.153Z,60.84
2023-02-16T10:29:54.206Z,58.71
2023-02-16T10:30:54.244Z,60.61
2023-02-16T10:31:54.243Z,59.58
2023-02-16T10:33:01.145Z,60.83
2023-02-16T10:33:54.133Z,61.12
2023-02-16T10:34:54.152Z,61.88
2023-02-16T10:35:54.118Z,60.31
2023-02-16T10:36:54.107Z,59.68
2023-02-16T10:37:54.109Z,58.15
2023-02-16T10:38:54.128Z,58.67
2023-02-16T10:39:54.101Z,60.42
2023-02-16T10:40:54.102Z,60.32
2023-02-16T10:41:54.079Z,59.36
2023-02-16T10:42:54.104Z,60.60
2023-02-16T10:43:54.064Z,61.60
2023-02-16T10:44:54.059Z,59.26
2023-02-16T10:45:54.050Z,60.58
2023-02-16T10:46:54.067Z,60.90
2023-02-16T10:47:54.056Z,60.28
2023-02-16T10:48:54.043Z,59.37
2023-02-16T10:49:54.031Z,59.02
2023-02-16T10:50:54.015Z,61.05
2023-02-16T10:51:54.041Z,60.71
2023-02-16T10:52:54.017Z,58.59
2023-02-16T10:53:53.997Z,58.52
2023-02-16T10:54:53.997Z,58.42
2023-02-16T10:55:53.984Z,60.66
2023-02-16T10:56:53.995Z,62.13
2023-02-16T10:57:53.986Z,61.54
2023-02-16T10:58:53.959Z,60.56
2023-02-16T10:59:53.959Z,63.05
2023-02-16T11:00:53.948Z,60.53
2023-02-16T11:01:54.027Z,60.43
2023-02-16T11:02:53.937Z,60.43
2023-02-16T11:03:53.945Z,58.45
2023-02-16T11:04:53.920Z,59.44
2023-02-16T11:05:53.914Z,60.35
2023-02-16T11:06:53.907Z,61.59
2023-02-16T11:07:53.893Z,62.12
2023-02-16T11:08:53.898Z,61.67
2023-02-16T11:09:53.904Z,64.12
2023-02-16T11:10:53.897Z,61.19
2023-02-16T11:11:53.870Z,59.29
2023-02-16T11:12:53.892Z,64.31
2023-02-16T11:13:53.858Z,63.40
2023-02-16T11:14:53.859Z,63.48
2023-02-16T11:15:53.852Z,62.67
2023-02-16T11:16:53.858Z,63.17
2023-02-16T11:17:53.841Z,64.06
2023-02-16T11:18:53.849Z,63.94
2023-02-16T11:19:53.824Z,61.35
2023-02-16T11:20:53.830Z,62.28
2023-02-16T11:21:53.911Z,65.27
2023-02-16T11:22:53.830Z,63.43
2023-02-16T11:23:53.810Z,64.76
2023-02-16T11:24:53.825Z,61.72
2023-02-16T11:25:53.799Z,63.46
2023-02-16T11:26:53.814Z,63.14
2023-02-16T11:27:53.790Z,62.10
2023-02-16T11:28:53.829Z,62.46
2023-02-16T11:29:53.851Z,63.20
2023-02-16T11:30:53.860Z,62.03
2023-02-16T11:31:54.024Z,63.95
2023-02-16T11:32:53.782Z,63.60
2023-02-16T11:33:53.769Z,60.61
2023-02-16T11:34:53.752Z,62.64
2023-02-16T11:35:53.736Z,64.27
2023-02-16T11:36:53.731Z,63.29
2023-02-16T11:37:53.733Z,62.52
2023-02-16T11:38:53.737Z,60.87
2023-02-16T11:39:53.742Z,61.90
2023-02-16T11:40:53.717Z,59.58
2023-02-16T11:41:53.696Z,61.71
2023-02-16T11:42:53.693Z,60.13
2023-02-16T11:43:53.677Z,62.20
2023-02-16T11:44:53.674Z,64.55
2023-02-16T11:45:53.698Z,63.83
2023-02-16T11:46:53.740Z,63.19
2023-02-16T11:47:53.670Z,62.49
2023-02-16T11:48:53.639Z,63.83
2023-02-16T11:49:53.630Z,63.16
2023-02-16T11:50:54.630Z,62.31
2023-02-16T11:51:53.639Z,63.42
2023-02-16T11:52:53.615Z,62.40
2023-02-16T11:53:53.604Z,63.45
2023-02-16T11:54:53.619Z,62.71
2023-02-16T11:55:53.602Z,63.27
2023-02-16T11:56:53.611Z,65.30
2023-02-16T11:57:53.611Z,64.06
2023-02-16T11:58:53.576Z,65.02
2023-02-16T11:59:53.574Z,64.20
2023-02-16T12:00:53.571Z,62.27
2023-02-16T12:01:53.558Z,61.27
2023-02-16T12:02:53.553Z,63.46
2023-02-16T12:03:53.620Z,62.90
2023-02-16T12:04:53.589Z,62.18
2023-02-16T12:05:53.536Z,62.10
2023-02-16T12:06:53.548Z,61.24
2023-02-16T12:07:53.527Z,61.73
2023-02-16T12:08:53.520Z,63.14
2023-02-16T12:09:53.518Z,62.12
2023-02-16T12:10:53.510Z,64.35
2023-02-16T12:11:53.530Z,62.71
2023-02-16T12:12:53.503Z,63.62
2023-02-16T12:13:53.490Z,62.35
2023-02-16T12:14:53.514Z,64.33
2023-02-16T12:15:53.487Z,62.83
2023-02-16T12:16:53.475Z,63.04
2023-02-16T12:17:53.487Z,63.65
2023-02-16T12:18:53.475Z,64.44
2023-02-16T12:19:53.452Z,62.82
2023-02-16T12:20:53.468Z,61.83
2023-02-16T12:21:53.446Z,59.23
2023-02-16T12:22:53.456Z,62.17
2023-02-16T12:23:53.428Z,62.65
2023-02-16T12:24:53.414Z,63.37
2023-02-16T12:25:53.415Z,63.69
2023-02-16T12:26:53.433Z,63.77
2023-02-16T12:27:53.408Z,62.68
2023-02-16T12:28:53.395Z,60.85
2023-02-16T12:29:53.417Z,62.08
2023-02-16T12:30:53.427Z,62.14
2023-02-16T12:31:53.408Z,61.24
2023-02-16T12:32:53.379Z,62.54
2023-02-16T12:33:53.375Z,63.60
2023-02-16T12:34:53.362Z,61.27
2023-02-16T12:35:53.359Z,61.61
2023-02-16T12:36:53.357Z,64.71
2023-02-16T12:37:53.337Z,62.88
2023-02-16T12:38:53.338Z,61.47
2023-02-16T12:39:53.321Z,62.87
2023-02-16T12:40:53.321Z,62.92
2023-02-16T12:41:53.297Z,62.83
2023-02-16T12:42:53.327Z,60.92
2023-02-16T12:43:53.292Z,62.18
2023-02-16T12:44:53.290Z,61.50
2023-02-16T12:45:53.303Z,60.57
2023-02-16T12:46:53.265Z,63.75
2023-02-16T12:47:53.257Z,64.07
2023-02-16T12:48:53.278Z,63.57
2023-02-16T12:49:53.291Z,60.73
2023-02-16T12:50:53.249Z,62.99
2023-02-16T12:51:53.224Z,62.37
2023-02-16T12:52:53.229Z,61.23